Time;durP1;ratioP1;P1;durP2;ratioP2;P2;SDS_P1;SDS_P2;PMS_P1;PMS_P2;Temp;Humidity;BMP_temperature;BMP_pressure;BME280_temperature;BME280_humidity;BME280_pressure;Samples;Min_cycle;Max_cycle;Signal;HPM_P1;HPM_P2
2023/08/16 00:01:17;;;;;;;2.95;1.67;;;19.10;58.80;;;;;;5015948;28;20087;-62
2023/08/16 00:03:44;;;;;;;3.00;1.73;;;18.60;59.00;;;;;;5015881;28;20034;-62
2023/08/16 00:06:14;;;;;;;2.50;1.13;;;18.40;58.80;;;;;;5015792;28;20025;-62
2023/08/16 00:08:41;;;;;;;2.30;1.20;;;18.80;58.40;;;;;;5015616;28;20025;-63
2023/08/16 00:11:10;;;;;;;3.25;1.13;;;18.90;57.50;;;;;;5015466;28;20026;-63
2023/08/16 00:13:38;;;;;;;2.38;1.13;;;18.60;58.50;;;;;;5016379;28;20037;-63
2023/08/16 00:16:06;;;;;;;2.63;1.38;;;19.00;58.00;;;;;;5016343;28;20376;-63
2023/08/16 00:18:34;;;;;;;3.70;1.17;;;19.60;55.30;;;;;;5015235;28;20467;-62
2023/08/16 00:21:02;;;;;;;4.45;1.40;;;19.30;55.20;;;;;;5016329;28;20052;-62
2023/08/16 00:23:29;;;;;;;1.50;1.13;;;19.10;57.60;;;;;;5015133;28;20121;-62
2023/08/16 00:25:57;;;;;;;4.28;1.30;;;19.60;55.40;;;;;;5015253;28;20372;-62
2023/08/16 00:28:24;;;;;;;2.50;1.00;;;19.10;56.80;;;;;;5016152;28;20368;-62
2023/08/16 00:30:54;;;;;;;3.05;1.20;;;19.60;57.40;;;;;;5015282;28;20085;-62
2023/08/16 00:33:22;;;;;;;2.92;1.40;;;20.20;54.00;;;;;;5016156;28;20141;-62
2023/08/16 00:35:52;;;;;;;2.63;1.20;;;19.90;56.40;;;;;;5015117;28;20105;-63
2023/08/16 00:38:20;;;;;;;1.67;0.77;;;20.50;54.20;;;;;;5015127;28;20053;-63
2023/08/16 00:40:51;;;;;;;2.08;0.95;;;20.40;54.50;;;;;;4998710;28;20033;-62
2023/08/16 00:43:20;;;;;;;2.03;1.13;;;20.10;54.70;;;;;;5015027;28;20056;-63
2023/08/16 00:45:50;;;;;;;3.03;1.15;;;20.60;53.10;;;;;;5015028;28;20471;-62
2023/08/16 00:48:19;;;;;;;2.53;1.25;;;20.00;54.40;;;;;;5014892;28;20026;-63
2023/08/16 00:50:47;;;;;;;1.55;0.90;;;19.60;56.20;;;;;;5014881;28;20488;-63
2023/08/16 00:53:19;;;;;;;1.30;0.80;;;20.00;55.50;;;;;;5014843;28;20034;-63
2023/08/16 00:55:48;;;;;;;3.22;1.23;;;20.50;54.60;;;;;;5014826;28;20028;-63
2023/08/16 00:58:17;;;;;;;4.60;1.35;;;21.00;54.00;;;;;;5015680;28;20479;-63
2023/08/16 01:00:44;;;;;;;1.95;1.30;;;21.10;53.40;;;;;;4982267;28;20045;-63
2023/08/16 01:03:12;;;;;;;2.10;1.20;;;21.50;50.70;;;;;;5015741;28;20057;-63
2023/08/16 01:05:39;;;;;;;3.03;1.02;;;19.80;53.80;;;;;;5015680;28;20057;-63
2023/08/16 01:08:07;;;;;;;2.45;1.20;;;19.10;55.60;;;;;;5014571;28;20029;-63
2023/08/16 01:11:19;;;;;;;3.20;1.10;;;17.70;58.90;;;;;;5014573;28;20026;-62
2023/08/16 01:14:11;;;;;;;2.78;1.05;;;18.60;57.30;;;;;;4988681;28;20467;-63
2023/08/16 01:16:40;;;;;;;3.67;1.15;;;18.20;58.10;;;;;;5014659;28;20041;-63
2023/08/16 01:19:14;;;;;;;2.63;1.20;;;17.90;58.90;;;;;;5011005;28;20042;-63
2023/08/16 01:21:47;;;;;;;4.05;0.95;;;17.80;60.30;;;;;;4978960;28;20114;-63
2023/08/16 01:24:14;;;;;;;1.92;0.77;;;18.10;59.70;;;;;;4995013;28;20034;-64
2023/08/16 01:26:43;;;;;;;1.85;1.00;;;18.10;58.10;;;;;;5011090;28;20026;-64
2023/08/16 01:29:12;;;;;;;2.42;0.98;;;18.00;58.50;;;;;;4994697;28;20045;-63
2023/08/16 01:31:40;;;;;;;2.28;0.90;;;17.90;58.20;;;;;;4995043;28;20049;-63
2023/08/16 01:34:08;;;;;;;2.00;1.00;;;17.90;59.30;;;;;;4994140;28;20026;-63
2023/08/16 01:36:36;;;;;;;3.50;1.30;;;17.60;59.50;;;;;;4994651;28;20404;-63
2023/08/16 01:39:04;;;;;;;1.65;0.88;;;17.10;60.10;;;;;;4994621;28;20026;-63
2023/08/16 01:41:40;;;;;;;1.52;0.80;;;17.20;61.00;;;;;;5010972;28;20035;-64
2023/08/16 01:44:10;;;;;;;2.03;1.35;;;17.30;61.20;;;;;;5010956;28;20465;-64
2023/08/16 01:46:40;;;;;;;1.70;1.00;;;17.30;61.10;;;;;;5010926;28;20038;-63
2023/08/16 01:49:10;;;;;;;1.33;0.80;;;17.80;61.20;;;;;;4994877;28;20034;-63
2023/08/16 01:51:38;;;;;;;2.00;1.05;;;18.90;59.00;;;;;;4995533;28;20137;-63
2023/08/16 01:54:06;;;;;;;3.72;0.93;;;20.30;55.70;;;;;;4978479;28;20113;-63
2023/08/16 01:56:34;;;;;;;3.70;1.00;;;20.20;53.20;;;;;;4994520;28;20037;-63
2023/08/16 01:59:02;;;;;;;2.10;0.90;;;19.80;54.60;;;;;;4995430;28;20169;-63
2023/08/16 02:01:29;;;;;;;2.45;1.08;;;19.80;54.30;;;;;;4994658;28;20030;-63
2023/08/16 02:03:57;;;;;;;2.35;0.88;;;20.60;53.30;;;;;;4995386;28;20027;-63
2023/08/16 02:06:29;;;;;;;2.42;1.05;;;20.30;53.70;;;;;;4995323;28;20026;-64
2023/08/16 02:08:56;;;;;;;;;;;20.20;54.00;;;;;;4978797;28;20026;-63
2023/08/16 02:11:24;;;;;;;3.00;1.10;;;19.70;54.00;;;;;;5010858;28;19917;-63
2023/08/16 02:13:52;;;;;;;1.50;1.10;;;19.90;53.50;;;;;;4994340;28;20045;-63
2023/08/16 02:16:20;;;;;;;1.77;0.80;;;19.10;55.30;;;;;;4994270;28;20093;-64
2023/08/16 02:18:47;;;;;;;2.88;0.90;;;18.30;57.10;;;;;;4993967;28;20062;-64
2023/08/16 02:21:15;;;;;;;1.50;1.13;;;18.30;56.40;;;;;;4994319;28;20116;-63
2023/08/16 02:23:42;;;;;;;1.92;0.90;;;17.60;58.40;;;;;;4994206;28;20050;-63
2023/08/16 02:26:10;;;;;;;2.42;0.90;;;17.90;59.10;;;;;;4995257;28;20022;-64
2023/08/16 02:28:38;;;;;;;1.85;0.90;;;18.40;58.00;;;;;;4994976;28;20040;-64
2023/08/16 02:31:06;;;;;;;3.38;0.95;;;18.40;57.30;;;;;;4995120;28;20022;-64
2023/08/16 02:33:34;;;;;;;2.35;0.75;;;18.00;57.50;;;;;;4994298;28;20081;-64
2023/08/16 02:36:02;;;;;;;2.25;1.00;;;18.00;57.90;;;;;;4995006;28;20069;-64
2023/08/16 02:38:29;;;;;;;1.30;0.88;;;18.20;58.40;;;;;;4994920;28;20027;-62
2023/08/16 02:40:57;;;;;;;1.50;0.80;;;18.30;57.30;;;;;;5010031;28;20023;-63
2023/08/16 02:43:24;;;;;;;2.35;0.88;;;18.50;57.40;;;;;;5010056;28;20164;-63
2023/08/16 02:45:54;;;;;;;2.05;1.13;;;18.60;56.50;;;;;;4994334;28;20476;-63
2023/08/16 02:48:22;;;;;;;1.70;0.88;;;19.30;55.80;;;;;;4981122;28;20113;-64
2023/08/16 02:50:50;;;;;;;1.05;0.70;;;19.80;55.20;;;;;;4997154;28;20076;-64
2023/08/16 02:53:18;;;;;;;0.77;0.70;;;20.20;53.80;;;;;;4997081;28;20165;-64
2023/08/16 02:55:45;;;;;;;3.03;1.17;;;20.70;51.90;;;;;;4998118;28;20018;-63
2023/08/16 02:58:13;;;;;;;1.70;0.70;;;20.20;53.40;;;;;;5013219;28;20360;-64
2023/08/16 03:00:40;;;;;;;1.58;0.70;;;20.10;52.60;;;;;;4998185;28;20026;-63
2023/08/16 03:03:08;;;;;;;1.42;0.70;;;19.70;54.00;;;;;;4997124;28;20034;-63
2023/08/16 03:05:36;;;;;;;1.63;0.88;;;20.20;53.60;;;;;;4997126;28;20030;-62
2023/08/16 03:08:03;;;;;;;1.40;0.70;;;20.40;54.20;;;;;;4997879;28;20049;-62
2023/08/16 03:10:31;;;;;;;2.15;0.90;;;19.90;53.60;;;;;;4997133;28;20026;-62
2023/08/16 03:12:58;;;;;;;2.53;0.90;;;19.50;53.40;;;;;;4997039;28;20018;-62
2023/08/16 03:15:26;;;;;;;1.40;0.80;;;19.30;54.10;;;;;;4997895;28;20364;-63
2023/08/16 03:17:54;;;;;;;1.73;0.80;;;20.00;53.10;;;;;;4997854;28;20053;-63
2023/08/16 03:20:21;;;;;;;1.60;0.70;;;19.50;52.40;;;;;;4996712;28;20074;-63
2023/08/16 03:22:49;;;;;;;1.02;0.63;;;19.20;54.00;;;;;;4997926;28;20077;-64
2023/08/16 03:25:17;;;;;;;1.42;0.63;;;18.70;54.10;;;;;;4996716;28;20510;-63
2023/08/16 03:27:45;;;;;;;2.92;0.77;;;19.10;54.60;;;;;;4996678;28;20452;-63
2023/08/16 03:30:13;;;;;;;0.80;0.60;;;19.00;53.30;;;;;;5013056;28;20105;-63
2023/08/16 03:32:40;;;;;;;1.10;0.60;;;18.60;54.20;;;;;;4996719;28;20452;-63
2023/08/16 03:35:08;;;;;;;1.33;0.60;;;18.60;55.30;;;;;;4996744;28;20423;-64
2023/08/16 03:37:36;;;;;;;3.05;0.73;;;18.50;55.50;;;;;;5012690;28;20441;-64
2023/08/16 03:40:05;;;;;;;1.50;0.80;;;18.50;55.90;;;;;;5012734;28;20027;-63
2023/08/16 03:42:33;;;;;;;1.52;0.70;;;18.30;56.00;;;;;;4996409;28;20034;-64
2023/08/16 03:45:01;;;;;;;1.15;0.50;;;18.00;56.70;;;;;;4996374;28;20026;-64
2023/08/16 03:47:29;;;;;;;3.00;0.90;;;17.90;57.60;;;;;;4996352;28;20121;-63
2023/08/16 03:49:59;;;;;;;0.93;0.60;;;18.30;56.90;;;;;;4997075;28;20026;-64
2023/08/16 03:52:27;;;;;;;1.17;0.55;;;18.40;56.10;;;;;;4997114;28;20018;-64
2023/08/16 03:54:55;;;;;;;2.17;0.65;;;18.50;56.30;;;;;;4996966;28;20054;-65
2023/08/16 03:57:25;;;;;;;2.50;0.57;;;18.60;56.70;;;;;;4995405;28;20049;-64
2023/08/16 03:59:53;;;;;;;1.45;0.60;;;18.50;55.70;;;;;;4996585;28;20111;-65
2023/08/16 04:02:21;;;;;;;0.93;0.60;;;18.60;56.20;;;;;;4995617;28;20069;-65
2023/08/16 04:04:53;;;;;;;3.35;0.77;;;18.70;55.10;;;;;;4995639;28;20330;-65
2023/08/16 04:07:21;;;;;;;0.93;0.50;;;19.60;52.50;;;;;;4995736;28;20109;-63
2023/08/16 04:09:49;;;;;;;1.42;0.60;;;19.90;52.70;;;;;;4996305;28;20027;-64
2023/08/16 04:12:16;;;;;;;0.95;0.60;;;19.50;54.20;;;;;;4996031;28;20080;-64
2023/08/16 04:14:44;;;;;;;2.53;0.70;;;19.00;54.40;;;;;;4995428;28;20344;-62
2023/08/16 04:17:11;;;;;;;2.90;0.70;;;19.00;55.60;;;;;;4996862;28;20025;-63
2023/08/16 04:19:38;;;;;;;2.05;0.70;;;19.00;54.70;;;;;;4995589;28;20046;-63
2023/08/16 04:22:06;;;;;;;2.28;0.52;;;19.50;54.60;;;;;;5012213;28;20023;-64
2023/08/16 04:24:33;;;;;;;2.13;0.70;;;19.20;55.50;;;;;;4995751;28;20034;-64
2023/08/16 04:27:01;;;;;;;1.45;0.65;;;19.10;54.40;;;;;;4995907;28;20463;-64
2023/08/16 04:29:28;;;;;;;0.90;0.60;;;19.00;54.70;;;;;;4995660;28;20035;-63
2023/08/16 04:31:56;;;;;;;1.83;0.63;;;19.10;54.20;;;;;;4995625;28;20018;-63
2023/08/16 04:34:24;;;;;;;1.05;0.60;;;18.80;53.70;;;;;;4996737;28;20109;-63
2023/08/16 04:36:51;;;;;;;1.58;0.85;;;18.60;55.40;;;;;;4995529;28;20464;-63
2023/08/16 04:39:19;;;;;;;1.70;0.63;;;18.40;55.00;;;;;;4995382;28;20429;-63
2023/08/16 04:41:46;;;;;;;0.63;0.50;;;18.40;54.80;;;;;;5011787;28;20037;-63
2023/08/16 04:44:14;;;;;;;0.65;0.43;;;18.30;55.60;;;;;;4996340;28;20030;-63
2023/08/16 04:46:41;;;;;;;2.17;0.68;;;18.30;55.50;;;;;;4995285;28;20387;-64
2023/08/16 04:49:09;;;;;;;1.25;0.55;;;19.70;53.60;;;;;;5011543;28;20030;-64
2023/08/16 04:51:36;;;;;;;2.08;0.70;;;20.90;50.80;;;;;;4995262;28;20124;-62
2023/08/16 04:54:04;;;;;;;0.77;0.60;;;21.70;48.70;;;;;;4996338;28;20348;-63
2023/08/16 04:56:31;;;;;;;1.13;0.57;;;22.70;47.10;;;;;;5011733;28;20077;-63
2023/08/16 04:58:59;;;;;;;0.88;0.60;;;23.90;45.90;;;;;;4995201;28;20022;-63
2023/08/16 05:01:27;;;;;;;1.80;0.55;;;24.10;43.70;;;;;;4996148;28;20018;-63
2023/08/16 05:03:54;;;;;;;0.80;0.65;;;24.40;42.30;;;;;;4995233;28;20049;-61
2023/08/16 05:06:30;;;;;;;0.65;0.50;;;25.20;41.80;;;;;;4995600;28;20037;-63
2023/08/16 05:08:58;;;;;;;2.17;0.82;;;25.10;41.50;;;;;;5012061;28;20523;-62
2023/08/16 05:11:25;;;;;;;2.00;1.00;;;25.60;40.40;;;;;;4995057;28;20022;-62
2023/08/16 05:13:53;;;;;;;1.65;0.80;;;25.30;41.10;;;;;;4994959;28;20061;-62
2023/08/16 05:16:20;;;;;;;3.05;1.00;;;22.80;47.90;;;;;;4994893;28;20022;-63
2023/08/16 05:18:48;;;;;;;2.65;0.73;;;21.10;51.90;;;;;;4994615;28;20127;-63
2023/08/16 05:21:16;;;;;;;1.88;0.70;;;19.30;57.00;;;;;;4995911;28;20033;-63
2023/08/16 05:23:43;;;;;;;2.75;0.90;;;18.60;59.30;;;;;;4994917;28;20045;-63
2023/08/16 05:26:11;;;;;;;3.00;1.15;;;18.10;61.50;;;;;;4994942;28;20393;-63
2023/08/16 05:28:38;;;;;;;3.38;0.80;;;17.80;62.70;;;;;;4994551;28;20030;-64
2023/08/16 05:31:13;;;;;;;2.42;0.85;;;17.60;63.70;;;;;;4994681;28;20023;-64
2023/08/16 05:33:41;;;;;;;3.97;0.98;;;17.40;64.90;;;;;;4994723;28;20084;-64
2023/08/16 05:36:09;;;;;;;1.45;0.80;;;17.50;65.00;;;;;;5010865;28;20022;-62
2023/08/16 05:38:36;;;;;;;2.30;0.80;;;17.50;65.40;;;;;;4994666;28;20026;-62
2023/08/16 05:41:05;;;;;;;2.28;0.80;;;17.60;65.50;;;;;;4994982;28;20029;-61
2023/08/16 05:43:39;;;;;;;2.88;0.90;;;17.80;65.10;;;;;;4995310;28;20050;-61
2023/08/16 05:46:06;;;;;;;2.83;1.13;;;18.00;64.70;;;;;;4996692;28;20046;-63
2023/08/16 05:48:39;;;;;;;2.58;0.85;;;20.40;59.10;;;;;;4994526;28;20360;-63
2023/08/16 05:51:07;;;;;;;2.42;0.90;;;21.50;54.60;;;;;;4994110;28;20023;-64
2023/08/16 05:53:34;;;;;;;4.57;1.30;;;22.10;54.00;;;;;;4994518;28;20344;-64
2023/08/16 05:56:02;;;;;;;3.25;1.00;;;22.70;52.30;;;;;;4995607;28;20109;-64
2023/08/16 05:58:29;;;;;;;3.13;0.85;;;23.60;51.20;;;;;;5010804;28;20034;-63
2023/08/16 06:00:57;;;;;;;2.13;0.77;;;24.20;48.80;;;;;;4995517;28;20022;-63
2023/08/16 06:03:24;;;;;;;3.42;0.73;;;24.60;47.90;;;;;;4994398;28;20052;-63
2023/08/16 06:05:52;;;;;;;1.40;0.77;;;24.70;48.50;;;;;;5010838;28;20034;-64
2023/08/16 06:08:20;;;;;;;1.77;0.50;;;25.00;46.70;;;;;;4995411;28;20042;-62
2023/08/16 06:10:47;;;;;;;2.72;0.50;;;24.20;48.20;;;;;;4994891;28;20018;-63
2023/08/16 06:13:15;;;;;;;2.03;0.70;;;22.90;50.60;;;;;;4993923;28;20334;-64
2023/08/16 06:15:43;;;;;;;1.45;0.60;;;22.70;51.10;;;;;;4993835;28;20027;-64
2023/08/16 06:18:10;;;;;;;1.58;0.60;;;22.60;51.20;;;;;;4993716;28;20022;-64
2023/08/16 06:20:37;;;;;;;1.98;0.80;;;22.20;52.60;;;;;;4995759;28;20054;-63
2023/08/16 06:23:05;;;;;;;2.15;0.80;;;22.90;51.00;;;;;;4997711;28;20060;-63
2023/08/16 06:25:33;;;;;;;1.38;0.73;;;23.10;50.90;;;;;;4998038;28;20080;-64
2023/08/16 06:28:01;;;;;;;1.23;0.73;;;21.10;54.80;;;;;;4997897;28;20030;-64
2023/08/16 06:30:28;;;;;;;1.13;0.45;;;18.50;60.80;;;;;;4998834;28;20376;-62
2023/08/16 06:32:56;;;;;;;1.73;0.60;;;17.50;64.30;;;;;;4998867;28;20094;-63
2023/08/16 06:35:24;;;;;;;1.60;0.70;;;17.10;65.90;;;;;;4998791;28;20025;-63
2023/08/16 06:37:52;;;;;;;1.63;0.77;;;16.80;66.70;;;;;;4997599;28;20031;-62
2023/08/16 06:40:19;;;;;;;0.95;0.50;;;16.70;67.50;;;;;;4997488;28;20026;-63
2023/08/16 06:42:47;;;;;;;0.80;0.57;;;16.50;68.10;;;;;;4998620;28;20353;-63
2023/08/16 06:45:14;;;;;;;2.60;0.73;;;16.30;68.60;;;;;;5013865;28;20121;-63
2023/08/16 06:47:42;;;;;;;3.90;1.02;;;16.20;69.20;;;;;;4997274;28;20023;-63
2023/08/16 06:50:11;;;;;;;1.48;0.75;;;16.20;69.40;;;;;;4997456;28;20030;-63
2023/08/16 06:52:38;;;;;;;2.85;0.85;;;16.10;69.30;;;;;;4998458;28;20030;-62
2023/08/16 06:55:06;;;;;;;1.90;0.70;;;16.00;69.70;;;;;;4997550;28;20018;-63
2023/08/16 06:57:34;;;;;;;2.28;0.90;;;15.90;70.00;;;;;;5013577;28;20034;-63
2023/08/16 07:00:04;;;;;;;1.00;0.50;;;15.80;70.60;;;;;;4998214;28;20037;-63
2023/08/16 07:02:38;;;;;;;1.60;0.80;;;15.70;70.20;;;;;;4997387;28;20080;-62
2023/08/16 07:05:06;;;;;;;1.15;0.55;;;15.80;70.20;;;;;;4998630;28;20153;-62
2023/08/16 07:07:33;;;;;;;1.15;0.40;;;15.70;70.10;;;;;;4996980;28;20023;-65
2023/08/16 07:10:00;;;;;;;0.80;0.60;;;15.50;70.30;;;;;;4998197;28;20026;-62
2023/08/16 07:12:28;;;;;;;1.95;0.63;;;15.50;70.60;;;;;;5013820;28;20530;-63
2023/08/16 07:14:55;;;;;;;0.88;0.47;;;15.40;71.20;;;;;;4997154;28;20030;-63
2023/08/16 07:17:23;;;;;;;1.65;0.60;;;15.30;71.00;;;;;;4998951;28;20022;-63
2023/08/16 07:19:52;;;;;;;1.75;0.55;;;15.30;71.10;;;;;;5013244;28;20377;-63
2023/08/16 07:22:25;;;;;;;0.70;0.40;;;15.20;71.50;;;;;;4996971;28;20022;-62
2023/08/16 07:24:54;;;;;;;2.38;0.57;;;15.20;71.20;;;;;;4996923;28;20117;-63
2023/08/16 07:27:22;;;;;;;1.75;1.00;;;15.10;71.60;;;;;;4996884;28;20117;-63
2023/08/16 07:29:49;;;;;;;2.95;1.27;;;15.00;72.20;;;;;;4997716;28;20125;-62
2023/08/16 07:32:17;;;;;;;1.50;0.70;;;15.00;72.20;;;;;;5012292;28;20352;-64
2023/08/16 07:34:44;;;;;;;3.03;0.70;;;15.00;72.20;;;;;;4997700;28;20030;-64
2023/08/16 07:37:13;;;;;;;1.20;0.80;;;14.90;72.30;;;;;;4996500;28;20109;-65
2023/08/16 07:39:41;;;;;;;4.28;0.90;;;14.80;72.60;;;;;;4996507;28;20030;-64
2023/08/16 07:42:09;;;;;;;7.88;2.20;;;14.70;72.70;;;;;;4996521;28;20027;-64
2023/08/16 07:44:37;;;;;;;5.00;1.50;;;14.70;73.00;;;;;;4997464;28;20050;-65
2023/08/16 07:47:04;;;;;;;4.38;1.50;;;14.60;73.40;;;;;;4997595;28;20037;-64
2023/08/16 07:49:32;;;;;;;3.20;1.60;;;14.50;73.50;;;;;;4997341;28;20495;-63
2023/08/16 07:52:00;;;;;;;3.97;1.30;;;14.50;73.70;;;;;;4996339;28;20329;-63
2023/08/16 07:54:27;;;;;;;3.22;1.10;;;14.50;73.80;;;;;;4997319;28;20030;-64
2023/08/16 07:56:55;;;;;;;3.25;1.38;;;14.40;73.90;;;;;;4996275;28;20068;-63
2023/08/16 07:59:23;;;;;;;3.47;1.13;;;14.30;74.20;;;;;;5012409;28;20084;-63
2023/08/16 08:01:51;;;;;;;3.70;1.30;;;14.30;74.30;;;;;;4996128;28;20038;-64
2023/08/16 08:04:19;;;;;;;3.35;1.00;;;14.30;74.20;;;;;;4997170;28;20054;-63
2023/08/16 08:06:48;;;;;;;3.13;0.98;;;14.20;74.30;;;;;;4996078;28;20041;-64
2023/08/16 08:09:16;;;;;;;2.78;1.20;;;14.20;74.60;;;;;;4995773;28;20519;-64
2023/08/16 08:11:43;;;;;;;2.58;1.40;;;14.10;74.90;;;;;;4995792;28;20034;-64
2023/08/16 08:14:11;;;;;;;1.80;1.23;;;14.00;75.20;;;;;;4996974;28;20022;-64
2023/08/16 08:16:39;;;;;;;3.13;1.20;;;14.10;75.30;;;;;;4996907;28;20098;-63
2023/08/16 08:19:06;;;;;;;4.57;1.30;;;14.00;75.40;;;;;;4995555;28;20053;-63
2023/08/16 08:21:34;;;;;;;4.03;1.40;;;14.00;75.70;;;;;;4995898;28;20026;-62
2023/08/16 08:24:02;;;;;;;4.72;1.30;;;13.90;75.90;;;;;;4995758;28;20030;-63
2023/08/16 08:26:30;;;;;;;2.30;1.20;;;13.90;76.10;;;;;;4996727;28;20044;-63
2023/08/16 08:28:58;;;;;;;2.97;1.40;;;13.80;76.10;;;;;;4995570;28;20030;-63
2023/08/16 08:31:25;;;;;;;2.70;1.40;;;13.80;76.30;;;;;;4996625;28;20029;-63
2023/08/16 08:33:53;;;;;;;2.80;1.20;;;13.70;76.50;;;;;;4996564;28;20034;-63
2023/08/16 08:36:20;;;;;;;2.90;1.40;;;13.70;76.40;;;;;;4996574;28;20353;-62
2023/08/16 08:38:49;;;;;;;5.13;1.92;;;13.60;76.70;;;;;;4996460;28;20026;-63
2023/08/16 08:41:21;;;;;;;1.70;1.20;;;13.50;76.80;;;;;;4995537;28;20026;-63
2023/08/16 08:43:51;;;;;;;2.20;1.00;;;13.50;77.00;;;;;;4996440;28;20054;-62
2023/08/16 08:46:20;;;;;;;2.15;1.38;;;13.50;77.40;;;;;;4995395;28;20041;-63
2023/08/16 08:48:49;;;;;;;3.67;1.80;;;13.40;77.70;;;;;;4995231;28;20027;-63
2023/08/16 08:51:17;;;;;;;2.63;1.42;;;13.40;78.20;;;;;;4996397;28;20030;-62
2023/08/16 08:53:45;;;;;;;3.72;1.73;;;13.30;78.40;;;;;;4996320;28;20483;-61
2023/08/16 08:56:15;;;;;;;5.25;1.92;;;13.30;78.80;;;;;;4995283;28;20109;-63
2023/08/16 08:58:46;;;;;;;2.58;1.48;;;13.40;78.80;;;;;;4995117;28;20121;-64
2023/08/16 09:01:15;;;;;;;4.82;1.80;;;13.30;79.00;;;;;;5011574;28;20046;-63
2023/08/16 09:03:45;;;;;;;4.22;1.55;;;13.20;79.10;;;;;;4995210;28;20094;-63
2023/08/16 09:06:13;;;;;;;2.85;1.58;;;13.20;78.90;;;;;;4995080;28;20026;-63
2023/08/16 09:08:43;;;;;;;4.00;1.98;;;13.20;79.40;;;;;;4994805;28;20077;-63
2023/08/16 09:11:12;;;;;;;3.17;1.90;;;13.10;79.30;;;;;;4994906;28;20113;-64
2023/08/16 09:13:40;;;;;;;3.03;1.48;;;13.10;79.60;;;;;;5011176;28;20414;-63
2023/08/16 09:16:07;;;;;;;4.07;1.70;;;13.10;79.60;;;;;;4995048;28;20026;-64
2023/08/16 09:18:36;;;;;;;4.07;1.95;;;13.00;79.80;;;;;;4996836;28;20113;-64
2023/08/16 09:21:04;;;;;;;2.75;1.73;;;13.00;79.70;;;;;;5014706;28;20049;-63
2023/08/16 09:23:33;;;;;;;2.20;1.40;;;13.00;79.90;;;;;;5014519;28;20022;-62
2023/08/16 09:26:02;;;;;;;2.85;1.40;;;13.00;80.00;;;;;;5014523;28;20026;-63
2023/08/16 09:28:33;;;;;;;3.90;2.05;;;13.00;79.90;;;;;;5014346;28;20034;-63
2023/08/16 09:31:06;;;;;;;3.40;1.50;;;13.00;80.40;;;;;;5014452;28;20022;-64
2023/08/16 09:33:35;;;;;;;2.50;1.60;;;13.10;79.90;;;;;;5014528;28;20087;-63
2023/08/16 09:36:07;;;;;;;2.30;1.55;;;13.00;80.10;;;;;;5015421;28;20022;-63
2023/08/16 09:38:44;;;;;;;2.88;1.88;;;12.90;80.30;;;;;;5014419;28;20034;-64
2023/08/16 09:41:19;;;;;;;3.13;1.60;;;12.90;80.20;;;;;;4998944;28;20026;-63
2023/08/16 09:43:47;;;;;;;3.95;2.40;;;12.80;80.20;;;;;;5014319;28;20025;-63
2023/08/16 09:46:20;;;;;;;4.07;1.90;;;12.80;80.30;;;;;;5015003;28;20032;-62
2023/08/16 09:48:48;;;;;;;2.53;1.80;;;12.80;80.30;;;;;;5014189;28;20380;-61
2023/08/16 09:51:17;;;;;;;4.95;1.60;;;12.70;80.50;;;;;;5015223;28;20022;-62
2023/08/16 09:53:48;;;;;;;4.35;1.70;;;12.60;80.80;;;;;;5015286;28;20030;-62
2023/08/16 09:56:16;;;;;;;3.77;1.60;;;12.50;81.00;;;;;;5018174;28;20452;-61
2023/08/16 09:58:44;;;;;;;3.47;2.10;;;12.50;80.80;;;;;;5018119;28;20040;-62
2023/08/16 10:01:12;;;;;;;3.42;1.40;;;12.50;81.80;;;;;;5019183;28;20088;-62
2023/08/16 10:03:40;;;;;;;4.18;1.60;;;12.40;81.40;;;;;;5018150;28;20026;-62
2023/08/16 10:06:08;;;;;;;2.55;1.45;;;12.40;81.70;;;;;;5019021;28;20108;-62
2023/08/16 10:08:36;;;;;;;4.03;1.58;;;12.40;81.60;;;;;;5019042;28;20057;-62
2023/08/16 10:11:04;;;;;;;3.03;1.50;;;12.40;81.60;;;;;;5018109;28;20458;-62
2023/08/16 10:13:32;;;;;;;2.92;1.30;;;12.40;81.90;;;;;;5017911;28;20026;-62
2023/08/16 10:16:00;;;;;;;2.40;1.40;;;12.40;82.10;;;;;;5018895;28;20397;-61
2023/08/16 10:18:29;;;;;;;3.85;1.58;;;12.40;81.80;;;;;;5017546;28;20033;-63
2023/08/16 10:20:59;;;;;;;3.60;1.88;;;12.30;81.70;;;;;;5018817;28;20056;-63
2023/08/16 10:23:28;;;;;;;3.28;1.60;;;12.30;81.60;;;;;;5017776;28;20075;-63
2023/08/16 10:26:01;;;;;;;3.05;1.63;;;12.30;81.90;;;;;;5017765;28;20030;-62
2023/08/16 10:28:30;;;;;;;3.90;2.20;;;12.10;82.10;;;;;;5001102;28;20084;-63
2023/08/16 10:31:00;;;;;;;8.52;2.67;;;12.10;82.20;;;;;;5017723;28;20048;-62
2023/08/16 10:33:38;;;;;;;6.55;2.13;;;12.20;82.60;;;;;;5017605;28;20033;-62
2023/08/16 10:36:09;;;;;;;4.43;2.10;;;12.20;82.70;;;;;;5002263;28;20558;-62
2023/08/16 10:38:38;;;;;;;5.00;2.20;;;12.20;82.60;;;;;;5018296;28;20033;-62
2023/08/16 10:41:16;;;;;;;6.05;2.63;;;12.30;82.40;;;;;;5017461;28;20025;-62
2023/08/16 10:43:50;;;;;;;3.63;2.30;;;12.20;82.40;;;;;;5001135;28;20026;-62
2023/08/16 10:46:32;;;;;;;3.83;2.58;;;12.10;82.50;;;;;;5017197;28;20034;-62
2023/08/16 10:49:07;;;;;;;2.80;2.30;;;12.00;82.50;;;;;;5017125;28;20029;-61
2023/08/16 10:52:04;;;;;;;4.75;2.50;;;12.00;82.50;;;;;;5018201;28;20104;-62
2023/08/16 10:54:37;;;;;;;3.50;2.47;;;11.80;83.50;;;;;;5001366;28;20030;-61
2023/08/16 10:57:08;;;;;;;3.72;2.22;;;11.70;84.10;;;;;;5017139;28;20057;-62
2023/08/16 10:59:42;;;;;;;5.68;2.72;;;11.70;83.90;;;;;;5017972;28;20435;-62
2023/08/16 11:02:15;;;;;;;4.70;2.60;;;11.70;83.80;;;;;;5000966;28;20052;-62
2023/08/16 11:04:43;;;;;;;3.92;2.78;;;11.70;83.30;;;;;;5000770;28;20030;-62
2023/08/16 11:07:12;;;;;;;3.78;2.80;;;11.70;83.50;;;;;;5015731;28;20026;-61
2023/08/16 11:09:43;;;;;;;5.90;3.35;;;11.60;83.90;;;;;;5016723;28;20022;-61
2023/08/16 11:12:14;;;;;;;4.78;3.40;;;11.70;83.50;;;;;;5016879;28;20017;-62
2023/08/16 11:14:44;;;;;;;4.38;3.15;;;11.60;83.70;;;;;;5017955;28;20444;-62
2023/08/16 11:17:15;;;;;;;6.30;3.08;;;11.60;83.70;;;;;;5016844;28;20032;-62
2023/08/16 11:19:43;;;;;;;5.60;3.30;;;11.50;83.70;;;;;;5016496;28;20069;-62
2023/08/16 11:22:12;;;;;;;3.95;3.22;;;11.50;83.90;;;;;;5016623;28;20040;-62
2023/08/16 11:24:40;;;;;;;5.78;2.67;;;11.50;83.70;;;;;;5000198;28;20029;-62
2023/08/16 11:27:08;;;;;;;5.13;2.47;;;11.40;83.90;;;;;;5016560;28;20037;-63
2023/08/16 11:29:36;;;;;;;4.07;2.50;;;11.40;84.10;;;;;;5017324;28;20037;-62
2023/08/16 11:32:04;;;;;;;5.80;2.60;;;11.40;83.80;;;;;;5016578;28;20028;-62
2023/08/16 11:34:34;;;;;;;5.30;3.33;;;11.20;84.00;;;;;;5017405;28;20026;-62
2023/08/16 11:37:02;;;;;;;6.28;3.80;;;11.10;84.10;;;;;;5016400;28;20026;-62
2023/08/16 11:39:30;;;;;;;6.25;3.97;;;11.00;84.30;;;;;;5016091;28;20066;-62
2023/08/16 11:41:58;;;;;;;5.47;4.00;;;11.00;84.70;;;;;;5016896;28;20033;-61
2023/08/16 11:44:25;;;;;;;5.53;3.45;;;10.90;84.90;;;;;;5016131;28;20384;-61
2023/08/16 11:46:53;;;;;;;8.35;4.28;;;10.80;85.00;;;;;;5016175;28;20033;-62
2023/08/16 11:49:24;;;;;;;9.57;3.95;;;10.80;84.40;;;;;;5016122;28;20084;-62
2023/08/16 11:51:52;;;;;;;5.18;3.80;;;10.70;85.00;;;;;;5016247;28;20026;-61
2023/08/16 11:54:23;;;;;;;7.25;4.57;;;10.70;84.40;;;;;;5016151;28;20022;-62
2023/08/16 11:56:52;;;;;;;8.60;4.50;;;10.70;84.40;;;;;;5016186;28;20026;-62
2023/08/16 11:59:31;;;;;;;11.23;6.07;;;10.50;84.60;;;;;;5016869;28;20356;-62
2023/08/16 12:02:07;;;;;;;16.88;7.47;;;10.40;85.10;;;;;;5016059;28;20076;-63
2023/08/16 12:04:34;;;;;;;12.30;6.78;;;10.20;85.40;;;;;;5000024;28;20373;-62
2023/08/16 12:07:09;;;;;;;13.63;6.88;;;10.20;85.80;;;;;;5015941;28;20053;-61
2023/08/16 12:09:40;;;;;;;17.33;9.13;;;10.10;85.60;;;;;;4999551;28;20038;-62
2023/08/16 12:12:10;;;;;;;14.13;8.65;;;10.00;86.20;;;;;;5016780;28;20026;-61
2023/08/16 12:14:37;;;;;;;13.68;7.65;;;9.90;87.20;;;;;;4999902;28;20022;-62
2023/08/16 12:17:05;;;;;;;12.40;6.82;;;9.90;86.40;;;;;;5016625;28;20022;-62
2023/08/16 12:19:33;;;;;;;13.85;8.73;;;9.70;86.60;;;;;;5015001;28;20045;-63
2023/08/16 12:22:00;;;;;;;12.75;7.55;;;9.70;86.90;;;;;;5015589;28;20124;-62
2023/08/16 12:24:28;;;;;;;14.40;8.57;;;9.60;87.70;;;;;;5016570;28;20018;-62
2023/08/16 12:26:56;;;;;;;16.05;9.13;;;9.70;87.60;;;;;;5015622;28;20036;-63
2023/08/16 12:29:25;;;;;;;10.30;6.53;;;9.70;86.90;;;;;;5016318;28;20124;-62
2023/08/16 12:31:52;;;;;;;11.27;6.43;;;9.70;86.40;;;;;;5015545;28;20029;-63
2023/08/16 12:34:20;;;;;;;13.02;7.25;;;9.60;86.40;;;;;;5016696;28;20029;-63
2023/08/16 12:36:48;;;;;;;10.88;6.32;;;9.50;86.70;;;;;;5015522;28;20025;-62
2023/08/16 12:39:15;;;;;;;9.55;6.50;;;9.50;87.00;;;;;;5015246;28;20030;-62
2023/08/16 12:41:43;;;;;;;11.18;6.72;;;9.50;86.70;;;;;;5016384;28;20096;-62
2023/08/16 12:44:12;;;;;;;12.02;6.70;;;9.50;86.50;;;;;;5015293;28;20029;-63
2023/08/16 12:46:40;;;;;;;12.10;7.32;;;9.60;86.30;;;;;;5015149;28;20129;-63
2023/08/16 12:49:08;;;;;;;14.32;8.85;;;9.50;86.20;;;;;;5015067;28;20403;-61
2023/08/16 12:51:36;;;;;;;12.15;7.57;;;9.30;87.30;;;;;;4998735;28;20025;-62
2023/08/16 12:54:04;;;;;;;10.57;6.97;;;9.30;88.10;;;;;;5015043;28;20029;-62
2023/08/16 12:56:31;;;;;;;13.73;8.25;;;9.30;87.90;;;;;;5014882;28;20029;-63